DW1595 Weather Reports


Display with metric or nautical units.
time (UTC)temp
F
wind
direction
speed
MPH
gust
MPH
rain 1hr
in
rain 24hr
in
rain mn
in
humidity
%
barometer
mb
20190321022055 55 318 0.0 0.0 0.00 0.00 0.24 68 1014.6
20190321021529 55 318 0.0 0.0 0.00 0.00 0.24 67 1014.8
20190321021101 55 318 0.0 0.0 0.00 0.00 0.24 67 1014.6
20190321020145 55 318 0.0 0.0 0.00 0.00 0.24 67 1014.8
20190321020124 56 318 0.0 0.0 0.00 0.00 0.24 67 1014.6
20190321015059 56 318 0.0 0.0 0.00 0.00 0.24 64 1014.5
20190321014046 56 318 0.0 0.0 0.00 0.00 0.24 65 1014.5
20190321013055 57 318 0.0 0.0 0.00 0.00 0.24 65 1014.5
20190321012059 57 281 0.0 0.0 0.00 0.00 0.24 63 1014.3
20190321011045 57 281 0.0 0.0 0.00 0.00 0.24 65 1014.3
20190321010144 57 281 0.0 0.0 0.00 0.00 0.24 65 1014.5
20190321010126 57 281 0.0 0.0 0.00 0.00 0.24 65 1014.3
20190321005056 57 279 0.0 0.0 0.00 0.00 0.24 68 1014.4
20190321004507 57 277 0.0 0.0 0.00 0.00 0.24 69 1014.6
20190321004100 57 277 0.0 0.0 0.00 0.00 0.24 70 1014.4
20190321003046 57 323 0.0 0.0 0.00 0.00 0.24 71 1014.4
20190321002054 58 325 0.0 0.0 0.00 0.00 0.24 71 1015.5
20190321001042 59 299 0.0 0.0 0.00 0.00 0.24 71 1015.4
20190321000126 60 282 0.0 0.0 0.00 0.00 0.24 69 1015.4
20190321000124 59 281 0.0 0.0 0.00 0.00 0.24 69 1014.6
20190320235058 61 316 0.0 0.0 0.00 0.00 0.24 67 1015.1
20190320234044 61 234 0.0 0.0 0.00 0.00 0.24 65 1015.1
20190320233051 60 286 0.0 0.0 0.00 0.00 0.24 69 1015.1
20190320232058 58 287 0.0 0.0 0.00 0.00 0.24 73 1015.2
20190320231045 58 287 0.0 0.0 0.00 0.00 0.24 76 1014.9
20190320230158 57 287 0.0 0.0 0.00 0.00 0.24 77 1014.1
20190320230126 57 288 0.0 0.0 0.00 0.00 0.24 77 1014.9
20190320225057 57 287 0.0 0.0 0.00 0.00 0.24 79 1014.7
20190320224044 56 287 0.0 0.0 0.01 0.00 0.24 78 1014.6
20190320223047 56 288 0.0 0.0 0.01 0.00 0.24 82 1014.6
20190320222052 57 287 0.0 0.0 0.01 0.00 0.24 83 1014.7
20190320221043 57 252 0.0 0.0 0.02 0.00 0.24 88 1014.7
20190320220125 57 252 0.0 0.0 0.02 0.00 0.24 90 1014.7
20190320220116 56 252 0.0 0.0 0.00 0.00 0.24 90 1013.9
20190320215056 56 254 0.0 0.0 0.04 0.00 0.24 90 1014.9
20190320214042 56 254 0.0 0.0 0.00 0.00 0.24 92 1015.3
20190320213045 55 254 0.0 0.0 0.00 0.00 0.23 91 1015.3
20190320212050 55 254 0.0 0.0 0.00 0.00 0.23 91 1015.3
20190320211502 54 254 0.0 0.0 0.00 0.00 0.23 91 1014.5
20190320211054 54 254 0.0 0.0 0.00 0.00 0.23 91 1015.3
20190320210141 54 254 0.0 0.0 0.00 0.00 0.22 90 1014.6
20190320210117 54 254 0.0 0.0 0.00 0.00 0.22 90 1015.3
20190320205042 54 341 0.0 0.0 0.00 0.00 0.20 89 1015.3
20190320204056 54 341 0.0 0.0 0.00 0.00 0.19 88 1015.3
20190320203046 54 342 0.0 0.0 0.00 0.00 0.19 87 1015.3
20190320202053 55 341 0.0 0.0 0.00 0.00 0.19 89 1015.4
20190320201505 54 341 0.0 0.0 0.00 0.00 0.19 90 1014.6
20190320201100 55 339 0.0 0.0 0.00 0.00 0.19 91 1015.9
20190320200122 54 339 0.0 0.0 0.00 0.00 0.18 90 1015.9
20190320200050 53 339 0.0 0.0 0.00 0.00 0.18 90 1015.1
20190320195045 53 339 0.0 0.0 0.00 0.00 0.17 89 1016.0
20190320194734 52 338 0.0 0.0 0.00 0.00 0.17 88 1015.2
20190320194044 53 339 0.0 0.0 0.00 0.00 0.16 87 1016.2
20190320193050 53 340 0.0 0.0 0.00 0.00 0.13 84 1016.2
20190320192057 55 312 0.0 0.0 0.00 0.00 0.03 80 1015.9
20190320191043 58 287 0.0 0.0 0.00 0.00 0.01 74 1015.8
20190320190125 62 177 0.0 0.0 0.00 0.00 0.00 64 1015.8
20190320190014 62 269 0.0 0.0 0.00 0.00 0.00 64 1015.0
20190320185051 63 153 0.0 0.0 0.00 0.00 0.00 55 1015.8
20190320184043 63 80 0.0 0.0 0.00 0.00 0.00 57 1015.8
20190320183054 61 234 0.0 0.0 0.00 0.00 0.00 65 1015.8
20190320182045 60 234 0.0 0.0 0.00 0.00 0.00 68 1016.0
20190320181053 59 234 0.0 0.0 0.00 0.00 0.00 68 1016.3
20190320180117 60 234 0.0 0.0 0.00 0.00 0.00 70 1016.3
20190320180028 59 233 0.0 0.0 0.00 0.00 0.00 70 1015.5
20190320175058 59 234 0.0 0.0 0.00 0.00 0.00 71 1016.3
20190320174050 58 234 0.0 0.0 0.00 0.00 0.00 73 1016.3
20190320173058 58 234 0.0 0.0 0.00 0.00 0.00 74 1016.3
20190320172045 58 234 0.0 0.0 0.00 0.00 0.00 74 1016.3
20190320171055 58 234 0.0 0.0 0.00 0.00 0.00 74 1016.3
20190320170124 58 234 0.0 0.0 0.00 0.00 0.00 75 1016.3
20190320170116 57 234 0.0 0.0 0.00 0.00 0.00 75 1015.5
20190320165100 58 234 0.0 0.0 0.00 0.00 0.00 75 1016.3
20190320164049 58 234 0.0 0.0 0.00 0.00 0.00 76 1016.3
20190320163056 57 234 0.0 0.0 0.00 0.00 0.00 76 1016.3
20190320162042 57 234 0.0 0.0 0.00 0.00 0.00 76 1016.2
20190320161050 58 234 0.0 0.0 0.00 0.00 0.00 76 1015.9
20190320160112 57 234 0.0 0.0 0.00 0.00 0.00 76 1015.9
20190320160011 57 234 0.0 0.0 0.00 0.00 0.00 76 1015.1
20190320155053 57 234 0.0 0.0 0.00 0.00 0.00 78 1015.8
20190320154046 56 234 0.0 0.0 0.00 0.00 0.00 79 1015.5
20190320153057 55 234 0.0 0.0 0.00 0.00 0.00 81 1015.5
20190320152044 55 234 0.0 0.0 0.00 0.00 0.00 81 1015.8
20190320151504 54 234 0.0 0.0 0.00 0.00 0.00 81 1015.0
20190320151101 55 234 0.0 0.0 0.00 0.00 0.00 82 1015.6
20190320150119 54 234 0.0 0.0 0.00 0.00 0.00 83 1015.6
20190320150033 54 234 0.0 0.0 0.00 0.00 0.00 83 1014.8
20190320145055 54 234 0.0 0.0 0.00 0.00 0.00 84 1015.6
20190320144044 54 234 0.0 0.0 0.00 0.00 0.00 84 1015.2
20190320143051 54 234 0.0 0.0 0.00 0.00 0.00 85 1015.2
20190320142058 53 234 0.0 0.0 0.00 0.00 0.00 85 1015.2
20190320141048 53 234 0.0 0.0 0.00 0.00 0.00 85 1014.9
20190320140129 54 234 0.0 0.0 0.00 0.00 0.00 85 1014.9
20190320140046 53 234 0.0 0.0 0.00 0.00 0.00 85 1014.1
20190320135047 54 234 0.0 0.0 0.00 0.00 0.00 85 1015.0
20190320134053 54 234 0.0 0.0 0.00 0.00 0.00 85 1014.8
20190320133102 54 234 0.0 0.0 0.00 0.00 0.00 85 1014.8
20190320132048 54 234 0.0 0.0 0.00 0.00 0.00 85 1014.8
20190320131508 53 234 0.0 0.0 0.00 0.00 0.00 85 1014.0
20190320131059 54 234 0.0 0.0 0.00 0.00 0.00 85 1014.8
20190320130119 54 234 0.0 0.0 0.00 0.00 0.00 85 1014.8
20190320130055 53 234 0.0 0.0 0.00 0.00 0.00 85 1014.0
20190320125056 53 234 0.0 0.0 0.00 0.00 0.00 85 1014.8
20190320124515 52 234 0.0 0.0 0.00 0.00 0.00 86 1014.0
20190320124101 53 234 0.0 0.0 0.00 0.00 0.00 86 1014.7
20190320123048 52 234 0.0 0.0 0.00 0.00 0.00 86 1014.7
20190320122044 52 234 0.0 0.0 0.00 0.00 0.00 85 1014.3
20190320121052 52 234 0.0 0.0 0.00 0.00 0.00 85 1014.2
20190320120131 52 234 0.0 0.0 0.00 0.00 0.00 85 1014.2
20190320120035 51 234 0.0 0.0 0.00 0.00 0.00 85 1013.4
20190320115048 52 234 0.0 0.0 0.00 0.00 0.00 84 1014.1
20190320114502 52 234 0.0 0.0 0.00 0.00 0.00 83 1013.3
20190320114058 53 234 0.0 0.0 0.00 0.00 0.00 83 1014.1
20190320113052 53 234 0.0 0.0 0.00 0.00 0.00 83 1014.1
20190320112044 53 234 0.0 0.0 0.00 0.00 0.00 83 1014.2
20190320111054 53 234 0.0 0.0 0.00 0.00 0.00 82 1014.5
20190320110115 53 234 0.0 0.0 0.00 0.00 0.00 82 1014.5
20190320110020 53 234 0.0 0.0 0.00 0.00 0.00 82 1013.7
20190320105053 54 234 0.0 0.0 0.00 0.00 0.00 82 1014.6
20190320104504 53 234 0.0 0.0 0.00 0.00 0.00 82 1013.8
20190320104100 54 234 0.0 0.0 0.00 0.00 0.00 82 1014.7
20190320103048 54 234 0.0 0.0 0.00 0.00 0.00 82 1014.7
20190320102059 54 234 0.0 0.0 0.00 0.00 0.00 82 1014.8
20190320101048 54 234 0.0 0.0 0.00 0.00 0.00 82 1014.7
20190320100128 54 234 0.0 0.0 0.00 0.00 0.00 82 1014.7
20190320100044 54 234 0.0 0.0 0.00 0.00 0.00 82 1013.9
20190320095047 55 234 0.0 0.0 0.00 0.00 0.00 82 1014.7
20190320094532 54 234 0.0 0.0 0.00 0.00 0.00 82 1014.0
20190320094101 55 234 0.0 0.0 0.00 0.00 0.00 82 1014.7
20190320093053 55 234 0.0 0.0 0.00 0.00 0.00 82 1014.7
20190320092102 55 234 0.0 0.0 0.00 0.00 0.00 82 1014.7
20190320091047 55 234 0.0 0.0 0.00 0.00 0.00 81 1014.8
20190320090129 55 234 0.0 0.0 0.00 0.00 0.00 81 1014.8
20190320090033 54 234 0.0 0.0 0.00 0.00 0.00 81 1014.0
20190320085045 55 234 0.0 0.0 0.00 0.00 0.00 81 1015.0
20190320084052 55 234 0.0 0.0 0.00 0.00 0.00 81 1014.7
20190320083047 55 234 0.0 0.0 0.00 0.00 0.00 80 1014.7
20190320082055 55 234 0.0 0.0 0.00 0.00 0.00 80 1014.8
20190320081518 54 234 0.0 0.0 0.00 0.00 0.00 80 1014.0
20190320081101 55 234 0.0 0.0 0.00 0.00 0.00 80 1014.9
20190320080119 55 234 0.0 0.0 0.00 0.00 0.00 80 1014.9
20190320080033 55 234 0.0 0.0 0.00 0.00 0.00 80 1014.1
20190320075057 55 234 0.0 0.0 0.00 0.00 0.00 81 1015.0
20190320074044 55 234 0.0 0.0 0.00 0.00 0.00 81 1015.0
20190320073057 55 234 0.0 0.0 0.00 0.00 0.00 81 1015.0
20190320072045 55 234 0.0 0.0 0.00 0.00 0.00 81 1015.2
20190320071055 55 234 0.0 0.0 0.00 0.00 0.00 81 1015.2
20190320070117 55 234 0.0 0.0 0.00 0.00 0.00 81 1015.2
20190320070024 55 234 0.0 0.0 0.00 0.00 0.00 81 1014.5
20190320065055 55 234 0.0 0.0 0.00 0.00 0.00 81 1015.2
20190320064047 55 234 0.0 0.0 0.00 0.00 0.00 81 1014.9
20190320063057 56 234 0.0 0.0 0.00 0.00 0.00 81 1014.9
20190320062045 56 234 0.0 0.0 0.00 0.00 0.00 82 1014.8
20190320061055 56 234 0.0 0.0 0.00 0.00 0.00 82 1014.6
20190320060114 56 234 0.0 0.0 0.00 0.00 0.00 82 1014.6
20190320060012 56 234 0.0 0.0 0.00 0.00 0.00 82 1013.8
20190320055050 56 234 0.0 0.0 0.00 0.00 0.00 82 1014.7
20190320054507 56 234 0.0 0.0 0.00 0.00 0.00 82 1013.9
20190320054102 56 234 0.0 0.0 0.00 0.00 0.00 82 1014.7
20190320053049 56 234 0.0 0.0 0.00 0.00 0.00 81 1014.7
20190320052057 56 234 0.0 0.0 0.00 0.00 0.00 81 1014.2
20190320051046 56 234 0.0 0.0 0.00 0.00 0.00 82 1014.5
20190320050126 56 234 0.0 0.0 0.00 0.00 0.00 82 1014.5
20190320050048 56 234 0.0 0.0 0.00 0.00 0.00 82 1013.7
20190320045046 57 215 0.0 0.0 0.00 0.00 0.00 82 1014.6
20190320044503 56 217 0.0 0.0 0.00 0.00 0.00 83 1013.8
20190320044102 57 219 0.0 0.0 0.00 0.00 0.00 82 1014.2
20190320043048 57 240 0.0 0.0 0.00 0.00 0.00 82 1014.2
20190320042059 57 240 0.0 0.0 0.00 0.00 0.00 82 1013.9
20190320041048 57 240 0.0 0.0 0.00 0.00 0.00 82 1014.3
20190320040132 57 240 0.0 0.0 0.00 0.00 0.00 82 1014.3
20190320040020 56 240 0.0 0.0 0.00 0.00 0.00 82 1013.5
20190320035056 57 240 0.0 0.0 0.00 0.00 0.00 82 1013.6
20190320034041 57 240 0.0 0.0 0.00 0.00 0.00 82 1013.1
20190320033054 57 239 0.0 0.0 0.00 0.00 0.00 82 1013.1
20190320032046 57 238 0.0 0.0 0.00 0.00 0.00 81 1013.0
20190320031053 57 239 0.0 0.0 0.00 0.00 0.00 81 1012.8
20190320030133 57 239 0.0 0.0 0.00 0.00 0.00 80 1012.8
20190320030025 57 238 0.0 0.0 0.00 0.00 0.00 80 1012.0
20190320025054 58 239 0.0 0.0 0.00 0.00 0.00 80 1012.7
20190320024042 58 238 0.0 0.0 0.00 0.00 0.00 80 1012.5
20190320023054 58 238 0.0 0.0 0.00 0.00 0.00 79 1012.5